Time;durP1;ratioP1;P1;durP2;ratioP2;P2;SDS_P1;SDS_P2;PMS_P1;PMS_P2;Temp;Humidity;BMP_temperature;BMP_pressure;BME280_temperature;BME280_humidity;BME280_pressure;Samples;Min_cycle;Max_cycle;Signal;HPM_P1;HPM_P2
2022/05/15 00:03:41;;;;;;;12.07;2.80;;;12.10;99.90;;;;;;20816184;28;20041;-76
2022/05/15 00:13:41;;;;;;;11.03;2.63;;;12.20;99.90;;;;;;20833421;28;20507;-76
2022/05/15 00:23:43;;;;;;;4.23;2.30;;;12.10;99.90;;;;;;20832777;28;20041;-76
2022/05/15 00:33:44;;;;;;;5.32;2.72;;;12.10;99.90;;;;;;20830943;28;20487;-76
2022/05/15 00:43:54;;;;;;;5.47;3.00;;;11.90;99.90;;;;;;20831123;28;20033;-76
2022/05/15 00:54:02;;;;;;;7.28;2.78;;;11.80;99.90;;;;;;20830176;28;20029;-76
2022/05/15 01:04:04;;;;;;;4.60;2.90;;;11.60;99.90;;;;;;20812024;28;20492;-76
2022/05/15 01:14:09;;;;;;;4.90;2.70;;;11.50;99.90;;;;;;20830399;28;20029;-76
2022/05/15 01:24:10;;;;;;;4.57;2.92;;;11.60;99.90;;;;;;20829753;28;20033;-76
2022/05/15 01:34:11;;;;;;;5.33;3.17;;;11.40;99.90;;;;;;20812063;28;20063;-76
2022/05/15 01:44:14;;;;;;;11.23;3.33;;;11.40;99.90;;;;;;20826521;28;20037;-76
2022/05/15 01:54:15;;;;;;;11.63;3.40;;;11.30;99.90;;;;;;20808919;28;20044;-77
2022/05/15 02:04:16;;;;;;;5.68;2.95;;;10.90;99.90;;;;;;20824823;28;20079;-77
2022/05/15 02:14:17;;;;;;;5.40;2.87;;;10.80;99.90;;;;;;20825731;28;20399;-77
2022/05/15 02:24:18;;;;;;;6.30;2.57;;;10.80;99.90;;;;;;20807928;28;20037;-76
2022/05/15 02:34:20;;;;;;;4.35;2.72;;;10.60;99.90;;;;;;20823645;28;20061;-76
2022/05/15 02:44:22;;;;;;;6.10;2.97;;;10.40;99.90;;;;;;20807066;28;20025;-77
2022/05/15 02:54:26;;;;;;;6.82;2.38;;;10.60;99.90;;;;;;20820215;23;20045;-77
2022/05/15 03:04:28;;;;;;;5.60;2.87;;;10.70;99.90;;;;;;20775675;28;20042;-77
2022/05/15 03:14:30;;;;;;;;;;;10.90;99.90;;;;;;20783360;28;20036;-77
2022/05/15 03:24:31;;;;;;;5.57;2.63;;;10.80;99.90;;;;;;20785283;28;19913;-77
2022/05/15 03:34:32;;;;;;;8.43;2.80;;;10.80;99.90;;;;;;20786583;28;20546;-77
2022/05/15 03:44:33;;;;;;;5.40;3.20;;;10.80;99.90;;;;;;20782139;28;20033;-77
2022/05/15 03:54:35;;;;;;;6.50;3.30;;;10.70;99.90;;;;;;20773550;28;20045;-77
2022/05/15 04:04:36;;;;;;;;;;;10.60;99.90;;;;;;20775052;28;20088;-77
2022/05/15 04:14:38;;;;;;;13.40;3.15;;;10.50;99.90;;;;;;20765301;28;19940;-77
2022/05/15 04:24:39;;;;;;;7.28;2.92;;;10.40;99.90;;;;;;20772037;28;20033;-77
2022/05/15 04:34:40;;;;;;;6.33;2.70;;;10.50;99.90;;;;;;20759716;28;20030;-77
2022/05/15 04:44:41;;;;;;;7.17;2.90;;;10.60;99.90;;;;;;20757369;28;20061;-77
2022/05/15 04:54:41;;;;;;;3.30;2.40;;;10.90;99.90;;;;;;20761036;28;20030;-77
2022/05/15 05:04:42;;;;;;;6.10;3.07;;;11.40;99.90;;;;;;20760862;28;20057;-77
2022/05/15 05:14:43;;;;;;;5.10;2.97;;;11.70;99.90;;;;;;20765923;28;20041;-77
2022/05/15 05:24:44;;;;;;;10.60;3.20;;;12.00;99.90;;;;;;20773340;28;20030;-77
2022/05/15 05:34:45;;;;;;;6.37;2.80;;;12.70;99.90;;;;;;20773696;28;20034;-77
2022/05/15 05:44:45;;;;;;;8.83;3.00;;;13.40;99.90;;;;;;20770254;28;20036;-77
2022/05/15 05:54:46;;;;;;;5.17;3.07;;;13.60;99.90;;;;;;20766274;28;20543;-77
2022/05/15 06:04:50;;;;;;;6.60;3.20;;;13.80;99.90;;;;;;20775301;28;20038;-78
2022/05/15 06:14:52;;;;;;;4.88;3.10;;;14.40;99.90;;;;;;20841284;28;20121;-77
2022/05/15 06:24:52;;;;;;;5.25;3.63;;;15.00;99.90;;;;;;20856628;28;20474;-78
2022/05/15 06:34:53;;;;;;;7.73;2.90;;;15.60;99.90;;;;;;20853088;28;20098;-78
2022/05/15 06:44:55;;;;;;;4.50;2.50;;;15.90;99.90;;;;;;20835443;28;20037;-77
2022/05/15 06:54:55;;;;;;;10.73;3.37;;;16.00;99.90;;;;;;20804983;28;20034;-78
2022/05/15 07:04:57;;;;;;;4.33;2.50;;;16.50;99.90;;;;;;20878179;28;20048;-77
2022/05/15 07:14:57;;;;;;;4.97;2.23;;;17.20;99.90;;;;;;20871624;28;20097;-78
2022/05/15 07:24:59;;;;;;;4.03;2.07;;;17.50;99.90;;;;;;20812349;28;20025;-77
2022/05/15 07:35:00;;;;;;;3.83;2.40;;;18.60;99.90;;;;;;20803446;28;20039;-77
2022/05/15 07:45:00;;;;;;;7.20;2.13;;;18.80;99.90;;;;;;20787170;28;20373;-76
2022/05/15 07:55:01;;;;;;;4.00;1.90;;;19.60;99.90;;;;;;20803179;28;20038;-77
2022/05/15 08:15:35;;;;;;;7.70;2.40;;;20.70;99.90;;;;;;20822828;28;20042;-77
2022/05/15 08:25:36;;;;;;;6.00;2.60;;;21.30;99.90;;;;;;20822349;28;20069;-78
2022/05/15 08:35:38;;;;;;;8.43;2.63;;;21.60;99.90;;;;;;20823682;28;20034;-77
2022/05/15 08:45:42;;;;;;;5.03;2.75;;;22.20;99.90;;;;;;20866150;28;20060;-77
2022/05/15 08:55:48;;;;;;;7.70;2.63;;;23.30;99.90;;;;;;20874829;23;20076;-73
2022/05/15 09:06:11;;;;;;;4.65;2.38;;;23.50;99.90;;;;;;20869915;28;20059;-73
2022/05/15 09:16:27;;;;;;;4.13;2.53;;;24.10;99.90;;;;;;20848599;28;20029;-74
2022/05/15 09:26:41;;;;;;;8.43;2.47;;;24.60;99.90;;;;;;20847141;28;20059;-74
2022/05/15 09:36:44;;;;;;;5.88;2.92;;;25.00;99.90;;;;;;20848239;28;20049;-73
2022/05/15 09:47:15;;;;;;;4.20;2.45;;;25.50;99.90;;;;;;20810569;28;20110;-73
2022/05/15 09:57:28;;;;;;;5.25;2.42;;;26.00;99.90;;;;;;20796920;28;20072;-73
2022/05/15 10:07:46;;;;;;;7.93;2.60;;;25.90;99.90;;;;;;20808434;28;20396;-73
2022/05/15 10:17:59;;;;;;;8.27;2.22;;;25.40;99.90;;;;;;20807760;28;20399;-72
2022/05/15 10:28:26;;;;;;;10.20;2.17;;;27.10;99.90;;;;;;20807670;28;20041;-73
2022/05/15 10:38:48;;;;;;;3.55;2.25;;;26.30;99.90;;;;;;20807956;28;20450;-73
2022/05/15 10:49:17;;;;;;;4.40;2.42;;;27.60;99.90;;;;;;20813296;28;20391;-73
2022/05/15 10:59:45;;;;;;;4.47;1.98;;;27.70;99.90;;;;;;20821826;28;20422;-74
2022/05/15 11:10:33;;;;;;;8.98;2.45;;;29.00;99.90;;;;;;20824760;28;20036;-74
2022/05/15 11:20:42;;;;;;;7.32;2.03;;;29.30;99.90;;;;;;20828516;28;20076;-74
2022/05/15 11:30:45;;;;;;;7.55;2.58;;;28.40;99.90;;;;;;20837408;28;20037;-73
2022/05/15 11:40:51;;;;;;;5.10;2.10;;;30.10;99.90;;;;;;20837590;28;20101;-73
2022/05/15 11:50:59;;;;;;;7.05;2.10;;;29.40;99.90;;;;;;20835781;28;20025;-73
2022/05/15 12:01:04;;;;;;;4.72;2.22;;;29.70;99.90;;;;;;20835427;28;20029;-73
2022/05/15 12:11:17;;;;;;;2.13;1.70;;;30.60;99.90;;;;;;20833637;28;20033;-73
2022/05/15 12:21:33;;;;;;;3.78;2.28;;;30.20;99.90;;;;;;20832279;28;20060;-73
2022/05/15 12:31:38;;;;;;;5.03;2.03;;;29.70;99.90;;;;;;20832900;28;20040;-73
2022/05/15 12:41:44;;;;;;;8.90;2.42;;;31.10;99.90;;;;;;20831951;28;20420;-73
2022/05/15 12:51:45;;;;;;;2.65;1.83;;;31.40;99.80;;;;;;20831250;28;20498;-73
2022/05/15 13:01:47;;;;;;;3.00;1.73;;;30.70;98.90;;;;;;20830841;28;20033;-74
2022/05/15 13:11:51;;;;;;;4.63;1.88;;;30.40;99.80;;;;;;20833254;28;20507;-74
2022/05/15 13:21:53;;;;;;;5.75;1.90;;;30.10;98.60;;;;;;20829058;28;20103;-74
2022/05/15 13:31:57;;;;;;;5.53;1.83;;;30.40;99.90;;;;;;20828407;28;20057;-74
2022/05/15 13:52:37;;;;;;;6.53;2.10;;;30.80;95.30;;;;;;20826477;28;20029;-74
2022/05/15 14:03:04;;;;;;;2.35;1.45;;;30.70;95.90;;;;;;20826142;28;20057;-74
2022/05/15 14:13:08;;;;;;;4.05;1.80;;;31.40;95.00;;;;;;20825704;28;20033;-74
2022/05/15 14:23:11;;;;;;;10.27;2.03;;;31.30;96.80;;;;;;20824912;28;20400;-74
2022/05/15 14:33:21;;;;;;;3.67;2.05;;;29.70;93.90;;;;;;20824217;28;20104;-76
2022/05/15 14:43:21;;;;;;;3.03;1.70;;;29.90;96.10;;;;;;20825335;28;20061;-76
2022/05/15 14:53:27;;;;;;;5.50;1.90;;;30.30;94.30;;;;;;20895261;22;20040;-76
2022/05/15 15:03:28;;;;;;;3.55;1.52;;;30.40;93.60;;;;;;20930525;22;20037;-76
2022/05/15 15:13:28;;;;;;;4.45;1.70;;;30.10;94.90;;;;;;20837016;28;20037;-77
2022/05/15 15:23:30;;;;;;;6.80;1.90;;;30.40;92.10;;;;;;20838894;28;20029;-78
2022/05/15 15:33:31;;;;;;;5.18;1.70;;;29.50;92.20;;;;;;20836916;28;20100;-78
2022/05/15 15:43:36;;;;;;;3.25;1.33;;;29.10;91.10;;;;;;20834844;28;20030;-77
2022/05/15 15:53:37;;;;;;;3.55;1.38;;;29.30;93.90;;;;;;20831652;28;20022;-76
2022/05/15 16:03:38;;;;;;;6.05;2.10;;;28.90;91.50;;;;;;20833866;28;20033;-78
2022/05/15 16:13:39;;;;;;;6.28;1.52;;;29.00;92.40;;;;;;20834272;28;20033;-77
2022/05/15 16:23:41;;;;;;;4.25;1.65;;;28.40;93.30;;;;;;20834427;28;20028;-77
2022/05/15 16:33:44;;;;;;;5.70;2.20;;;27.90;95.30;;;;;;20838054;28;20079;-76
2022/05/15 16:43:45;;;;;;;3.20;1.63;;;27.60;95.00;;;;;;20832593;28;20064;-77
2022/05/15 16:53:47;;;;;;;6.90;2.00;;;27.50;95.50;;;;;;20832171;28;20475;-78
2022/05/15 17:03:48;;;;;;;6.47;2.40;;;27.00;98.00;;;;;;20832374;28;20572;-77
2022/05/15 17:13:49;;;;;;;11.35;1.80;;;26.10;99.90;;;;;;20829718;28;20053;-76
2022/05/15 17:23:50;;;;;;;;;;;25.20;99.90;;;;;;20829188;28;20037;-75
2022/05/15 17:44:11;;;;;;;3.72;1.95;;;24.80;99.90;;;;;;20825558;28;20287;-76
2022/05/15 17:54:12;;;;;;;6.13;1.90;;;24.20;99.90;;;;;;20827123;28;20407;-77
2022/05/15 18:04:12;;;;;;;4.83;2.07;;;23.30;99.90;;;;;;20808371;28;20064;-77
2022/05/15 18:14:14;;;;;;;6.90;2.00;;;23.50;99.90;;;;;;20808324;28;20116;-77
2022/05/15 18:24:15;;;;;;;6.63;2.63;;;23.40;99.90;;;;;;20836344;28;20041;-77
2022/05/15 18:34:17;;;;;;;4.05;2.25;;;23.50;99.90;;;;;;20827521;28;20033;-77
2022/05/15 18:44:19;;;;;;;;;;;22.60;99.90;;;;;;20823785;28;20083;-77
2022/05/15 19:04:39;;;;;;;4.68;2.10;;;21.30;99.90;;;;;;20821202;28;20030;-77
2022/05/15 19:14:40;;;;;;;4.00;2.10;;;21.20;99.90;;;;;;20803338;28;20117;-76
2022/05/15 19:24:42;;;;;;;6.50;2.27;;;20.60;99.90;;;;;;20802877;28;20057;-76
2022/05/15 19:34:42;;;;;;;;;;;20.70;99.90;;;;;;20829395;28;20033;-77
2022/05/15 19:44:43;;;;;;;2.97;2.13;;;19.70;99.90;;;;;;20818484;28;20016;-77
2022/05/15 19:54:45;;;;;;;7.37;2.87;;;19.90;99.90;;;;;;20835346;28;20070;-77
2022/05/15 20:15:05;;;;;;;3.22;2.30;;;19.50;99.90;;;;;;20841767;28;20531;-77
2022/05/15 20:25:07;;;;;;;5.93;3.05;;;19.80;99.90;;;;;;20843014;28;20483;-77
2022/05/15 20:35:08;;;;;;;7.25;2.70;;;19.50;99.90;;;;;;20882888;28;20045;-78
2022/05/15 20:45:10;;;;;;;10.02;3.80;;;19.40;99.90;;;;;;20873583;28;20041;-78
2022/05/15 20:55:11;;;;;;;9.38;3.88;;;19.20;99.90;;;;;;20848786;22;20048;-73
2022/05/15 21:05:13;;;;;;;8.60;3.95;;;18.70;99.90;;;;;;20769771;28;20069;-71
2022/05/15 21:15:14;;;;;;;15.38;3.85;;;18.60;99.90;;;;;;20769645;28;20431;-72
2022/05/15 21:25:15;;;;;;;3.97;2.53;;;18.40;99.90;;;;;;20747109;28;20113;-72
2022/05/15 21:35:16;;;;;;;5.53;2.63;;;18.80;99.90;;;;;;20735461;28;20038;-72
2022/05/15 21:45:17;;;;;;;7.43;2.83;;;19.20;99.90;;;;;;20713951;28;20068;-72
2022/05/15 21:55:17;;;;;;;10.27;2.73;;;17.90;99.90;;;;;;20703256;28;20511;-72
2022/05/15 22:05:18;;;;;;;8.10;3.13;;;17.70;99.90;;;;;;20693598;28;20467;-72
2022/05/15 22:15:22;;;;;;;9.37;3.00;;;17.80;99.90;;;;;;20722203;28;20080;-72
2022/05/15 22:25:23;;;;;;;8.98;2.95;;;17.70;99.90;;;;;;20746953;28;20365;-73
2022/05/15 22:35:24;;;;;;;5.50;2.70;;;17.50;99.90;;;;;;20742827;28;20112;-72
2022/05/15 22:45:25;;;;;;;13.23;2.77;;;17.20;99.90;;;;;;20742441;28;20057;-73
2022/05/15 22:55:26;;;;;;;5.43;4.17;;;17.50;99.90;;;;;;20724585;28;20045;-72
2022/05/15 23:15:47;;;;;;;11.82;3.50;;;17.60;99.90;;;;;;20757134;28;20105;-73
2022/05/15 23:25:48;;;;;;;11.52;4.47;;;17.20;99.90;;;;;;20756180;28;20122;-73
2022/05/15 23:35:48;;;;;;;16.30;3.40;;;17.30;99.90;;;;;;20755578;28;20065;-73
2022/05/15 23:45:49;;;;;;;8.03;2.83;;;17.30;99.90;;;;;;20755441;28;20511;-73
2022/05/15 23:55:50;;;;;;;9.57;3.80;;;17.30;99.90;;;;;;20754576;28;20382;-72
